Time;durP1;ratioP1;P1;durP2;ratioP2;P2;SDS_P1;SDS_P2;PMS_P1;PMS_P2;Temp;Humidity;BMP_temperature;BMP_pressure;BME280_temperature;BME280_humidity;BME280_pressure;Samples;Min_cycle;Max_cycle;Signal;HPM_P1;HPM_P2
2021/08/05 00:00:30;;;;;;;2.78;1.88;;;18.80;75.40;;;;;;2035650;29;20033;-94
2021/08/05 00:01:30;;;;;;;1.90;1.45;;;18.80;75.50;;;;;;2045668;28;20025;-94
2021/08/05 00:02:31;;;;;;;2.65;1.48;;;18.80;75.50;;;;;;2051599;29;20040;-94
2021/08/05 00:03:32;;;;;;;1.77;1.27;;;18.80;75.60;;;;;;2054963;29;20039;-93
2021/08/05 00:04:32;;;;;;;2.55;1.70;;;18.80;75.60;;;;;;2044346;29;20048;-94
2021/08/05 00:05:33;;;;;;;2.28;1.45;;;18.80;75.60;;;;;;2043773;29;20032;-93
2021/08/05 00:06:34;;;;;;;3.30;1.70;;;18.80;75.70;;;;;;2051865;28;20031;-94
2021/08/05 00:07:35;;;;;;;2.78;1.67;;;18.80;75.70;;;;;;2043634;29;20059;-94
2021/08/05 00:08:35;;;;;;;2.03;1.60;;;18.80;75.80;;;;;;2051806;28;20071;-94
2021/08/05 00:09:38;;;;;;;2.55;1.50;;;18.80;75.90;;;;;;2051869;28;20036;-94
2021/08/05 00:10:39;;;;;;;3.05;1.90;;;18.80;75.90;;;;;;2044652;29;20044;-95
2021/08/05 00:11:40;;;;;;;3.25;1.70;;;18.80;75.90;;;;;;2054510;28;20038;-94
2021/08/05 00:12:41;;;;;;;2.13;1.70;;;18.80;75.90;;;;;;2045092;29;20044;-93
2021/08/05 00:13:42;;;;;;;2.55;1.58;;;18.80;75.90;;;;;;2050655;28;20074;-95
2021/08/05 00:14:43;;;;;;;2.85;1.63;;;18.80;76.00;;;;;;2051528;29;20106;-94
2021/08/05 00:15:44;;;;;;;2.45;1.63;;;18.80;76.00;;;;;;2051917;28;20063;-94
2021/08/05 00:16:44;;;;;;;2.67;1.75;;;18.80;76.00;;;;;;2043813;29;20055;-94
2021/08/05 00:17:45;;;;;;;2.17;1.48;;;18.80;76.00;;;;;;2052188;29;20058;-94
2021/08/05 00:18:46;;;;;;;2.45;1.83;;;18.80;76.00;;;;;;2060811;28;20066;-94
2021/08/05 00:19:46;;;;;;;2.72;1.70;;;18.80;76.00;;;;;;2064576;28;20423;-94
2021/08/05 00:20:47;;;;;;;1.92;1.50;;;18.80;76.10;;;;;;2040927;29;20056;-94
2021/08/05 00:21:48;;;;;;;2.50;1.73;;;18.80;76.10;;;;;;2047978;29;20047;-94
2021/08/05 00:22:49;;;;;;;2.40;1.70;;;18.80;76.20;;;;;;2048791;29;20119;-94
2021/08/05 00:23:49;;;;;;;2.38;1.58;;;18.80;76.20;;;;;;2049701;28;20032;-93
2021/08/05 00:24:50;;;;;;;2.50;1.63;;;18.80;76.20;;;;;;2057534;28;20050;-94
2021/08/05 00:25:51;;;;;;;2.58;2.00;;;18.70;76.10;;;;;;2049089;29;20032;-93
2021/08/05 00:26:51;;;;;;;2.80;1.70;;;18.80;76.20;;;;;;2036054;29;20059;-94
2021/08/05 00:27:52;;;;;;;2.53;1.80;;;18.80;76.20;;;;;;2044017;29;20071;-93
2021/08/05 00:28:53;;;;;;;2.00;1.60;;;18.80;76.30;;;;;;2044556;29;20035;-94
2021/08/05 00:29:53;;;;;;;3.13;1.90;;;18.80;76.30;;;;;;2035974;29;20040;-93
2021/08/05 00:30:54;;;;;;;2.95;1.88;;;18.70;76.20;;;;;;2044220;29;20099;-93
2021/08/05 00:31:55;;;;;;;3.00;2.03;;;18.70;76.30;;;;;;2043710;29;20040;-93
2021/08/05 00:32:56;;;;;;;2.50;1.85;;;18.80;76.40;;;;;;2043723;28;20031;-93
2021/08/05 00:33:57;;;;;;;2.38;1.80;;;18.70;76.40;;;;;;2043334;29;20063;-94
2021/08/05 00:34:57;;;;;;;2.15;1.70;;;18.80;76.40;;;;;;2035779;29;20406;-93
2021/08/05 00:35:59;;;;;;;2.53;1.90;;;18.70;76.40;;;;;;2035683;29;20036;-93
2021/08/05 00:36:59;;;;;;;2.80;1.80;;;18.70;76.40;;;;;;2054255;28;20131;-94
2021/08/05 00:38:00;;;;;;;2.30;1.52;;;18.70;76.50;;;;;;2051031;29;20031;-94
2021/08/05 00:39:01;;;;;;;2.97;2.03;;;18.70;76.50;;;;;;2050107;28;20039;-93
2021/08/05 00:40:03;;;;;;;2.60;1.80;;;18.70;76.50;;;;;;2048259;29;20040;-93
2021/08/05 00:41:04;;;;;;;2.95;1.75;;;18.70;76.60;;;;;;2047458;28;20031;-93
2021/08/05 00:42:05;;;;;;;2.33;1.92;;;18.70;76.60;;;;;;2051304;28;20536;-94
2021/08/05 00:43:05;;;;;;;3.55;1.88;;;18.70;76.60;;;;;;2044856;29;20048;-94
2021/08/05 00:44:06;;;;;;;2.88;1.98;;;18.70;76.70;;;;;;2053119;28;20031;-93
2021/08/05 00:45:08;;;;;;;2.72;1.80;;;18.70;76.80;;;;;;2052609;28;20128;-94
2021/08/05 00:46:08;;;;;;;2.80;1.98;;;18.70;76.80;;;;;;2052495;28;20039;-93
2021/08/05 00:47:09;;;;;;;2.80;1.60;;;18.60;76.80;;;;;;2050892;29;20063;-94
2021/08/05 00:48:10;;;;;;;2.50;1.95;;;18.60;76.90;;;;;;2043129;28;20040;-94
2021/08/05 00:49:10;;;;;;;2.75;1.90;;;18.60;77.00;;;;;;2050460;28;20074;-94
2021/08/05 00:50:11;;;;;;;2.75;1.75;;;18.60;77.00;;;;;;2050514;29;20035;-94
2021/08/05 00:51:12;;;;;;;2.67;2.00;;;18.60;77.10;;;;;;2042949;29;20047;-93
2021/08/05 00:52:13;;;;;;;3.08;1.70;;;18.50;77.00;;;;;;2043156;29;20040;-94
2021/08/05 00:53:15;;;;;;;2.35;1.90;;;18.60;77.10;;;;;;2051250;29;20168;-93
2021/08/05 00:54:16;;;;;;;2.42;1.58;;;18.50;77.10;;;;;;2050750;28;20523;-93
2021/08/05 00:55:18;;;;;;;2.55;1.80;;;18.50;77.20;;;;;;2042439;29;20122;-94
2021/08/05 00:56:19;;;;;;;2.38;1.77;;;18.60;77.30;;;;;;2043357;28;20043;-94
2021/08/05 00:57:20;;;;;;;3.08;1.95;;;18.50;77.30;;;;;;2050543;28;20143;-94
2021/08/05 00:58:21;;;;;;;3.35;2.05;;;18.50;77.40;;;;;;2050709;28;20054;-94
2021/08/05 00:59:22;;;;;;;2.42;1.60;;;18.50;77.40;;;;;;2050197;28;20478;-94
2021/08/05 01:00:25;;;;;;;2.55;1.90;;;18.50;77.50;;;;;;2052883;29;20039;-94
2021/08/05 01:01:32;;;;;;;3.35;1.98;;;18.50;77.60;;;;;;2046145;28;20036;-94
2021/08/05 01:02:39;;;;;;;3.00;1.95;;;18.40;77.60;;;;;;2053874;28;20130;-94
2021/08/05 01:03:43;;;;;;;2.45;1.80;;;18.40;77.70;;;;;;2053628;28;20422;-94
2021/08/05 01:04:52;;;;;;;3.28;2.00;;;18.40;77.80;;;;;;2061985;28;20045;-93
2021/08/05 01:06:06;;;;;;;3.35;1.98;;;18.30;77.90;;;;;;2061476;28;20031;-94
2021/08/05 01:07:14;;;;;;;2.80;1.92;;;18.30;77.90;;;;;;2062414;28;20512;-94
2021/08/05 01:08:23;;;;;;;2.47;1.73;;;18.20;78.10;;;;;;2059830;28;20493;-93
2021/08/05 01:09:55;;;;;;;3.00;2.08;;;18.10;78.20;;;;;;2061134;28;20129;-93
2021/08/05 01:11:02;;;;;;;2.97;2.10;;;18.10;78.30;;;;;;2065659;28;20046;-94
2021/08/05 01:12:39;;;;;;;3.10;1.90;;;18.10;78.40;;;;;;2062115;28;20034;-93
2021/08/05 01:13:53;;;;;;;2.58;1.90;;;18.10;78.40;;;;;;2065963;28;20045;-93
2021/08/05 01:15:13;;;;;;;2.20;1.70;;;18.10;78.40;;;;;;2064146;28;20038;-94
2021/08/05 01:16:21;;;;;;;3.22;2.20;;;18.00;78.40;;;;;;2066922;28;20018;-94
2021/08/05 01:17:27;;;;;;;2.45;1.95;;;18.00;78.50;;;;;;2057200;28;20047;-93
2021/08/05 01:19:09;;;;;;;2.75;2.00;;;18.00;78.50;;;;;;2066490;28;20039;-94
2021/08/05 01:20:46;;;;;;;2.33;1.92;;;18.00;78.60;;;;;;2057881;28;20034;-94
2021/08/05 01:22:58;;;;;;;3.80;2.05;;;18.00;78.60;;;;;;2045778;29;20043;-93
2021/08/05 01:24:56;;;;;;;3.53;1.90;;;18.00;78.40;;;;;;2053535;28;20042;-94
2021/08/05 01:26:06;;;;;;;2.67;1.90;;;18.00;78.50;;;;;;2085401;28;20040;-95
2021/08/05 01:27:07;;;;;;;2.60;1.80;;;18.00;78.50;;;;;;2076315;28;20026;-94
2021/08/05 01:28:10;;;;;;;2.40;1.80;;;18.00;78.60;;;;;;2068734;28;20053;-93
2021/08/05 01:29:11;;;;;;;2.78;2.03;;;17.90;78.70;;;;;;2061384;28;20047;-95
2021/08/05 01:30:12;;;;;;;3.05;2.00;;;17.90;78.80;;;;;;2068553;28;20106;-94
2021/08/05 01:31:14;;;;;;;3.05;2.20;;;17.90;78.90;;;;;;2059087;28;20078;-94
2021/08/05 01:32:16;;;;;;;2.92;2.25;;;17.90;79.00;;;;;;2069800;28;20030;-94
2021/08/05 01:33:20;;;;;;;2.80;2.00;;;17.90;79.10;;;;;;2077002;28;20030;-93
2021/08/05 01:34:23;;;;;;;2.63;2.05;;;17.90;79.10;;;;;;2076871;28;20440;-94
2021/08/05 01:35:25;;;;;;;3.03;2.08;;;17.90;79.20;;;;;;2075092;28;20030;-94
2021/08/05 01:36:27;;;;;;;3.20;2.00;;;17.90;79.20;;;;;;2054983;28;20039;-94
2021/08/05 01:37:28;;;;;;;3.35;2.20;;;17.90;79.30;;;;;;2069948;28;20043;-94
2021/08/05 01:38:33;;;;;;;4.45;2.13;;;17.90;79.30;;;;;;2051484;28;20102;-94
2021/08/05 01:39:34;;;;;;;2.50;2.10;;;17.90;79.30;;;;;;2052359;28;20051;-94
2021/08/05 01:40:35;;;;;;;3.65;2.42;;;17.90;79.40;;;;;;2068542;28;20086;-94
2021/08/05 01:41:36;;;;;;;3.35;2.47;;;17.90;79.40;;;;;;2068473;28;20061;-94
2021/08/05 01:42:38;;;;;;;3.72;2.42;;;17.80;79.40;;;;;;2067289;28;20035;-94
2021/08/05 01:43:39;;;;;;;3.30;2.42;;;17.90;79.50;;;;;;2058394;28;20046;-94
2021/08/05 01:44:45;;;;;;;3.67;2.15;;;17.90;79.50;;;;;;2053281;28;20075;-94
2021/08/05 01:45:47;;;;;;;3.42;2.38;;;17.80;79.60;;;;;;2069649;28;20070;-95
2021/08/05 01:46:48;;;;;;;3.72;2.70;;;17.90;79.60;;;;;;2066888;28;20122;-94
2021/08/05 01:47:50;;;;;;;3.10;2.33;;;17.90;79.70;;;;;;2073538;28;20480;-94
2021/08/05 01:48:54;;;;;;;3.97;2.63;;;17.80;79.60;;;;;;2067674;28;20187;-93
2021/08/05 01:49:56;;;;;;;3.65;2.65;;;17.90;79.70;;;;;;2061187;28;20042;-94
2021/08/05 01:51:25;;;;;;;3.95;3.05;;;17.90;79.70;;;;;;2062777;28;20086;-94
2021/08/05 01:53:22;;;;;;;3.65;2.60;;;17.90;79.70;;;;;;2064184;28;20595;-93
2021/08/05 01:55:41;;;;;;;3.80;2.65;;;17.90;79.60;;;;;;2065662;28;20483;-94
2021/08/05 01:58:12;;;;;;;3.50;2.50;;;17.80;79.40;;;;;;2050983;29;20039;-94
2021/08/05 02:00:16;;;;;;;;;;;17.80;79.40;;;;;;2028055;29;20567;-94
2021/08/05 02:02:02;;;;;;;2.90;2.08;;;17.70;79.30;;;;;;2019584;29;19916;-95
2021/08/05 02:04:04;;;;;;;3.13;2.35;;;17.70;79.30;;;;;;2004268;29;20066;-94
2021/08/05 02:05:08;;;;;;;4.13;2.53;;;17.70;79.40;;;;;;1982357;29;20031;-94
2021/08/05 02:06:14;;;;;;;3.38;2.38;;;17.60;79.40;;;;;;1982481;30;20043;-94
2021/08/05 02:07:19;;;;;;;3.63;2.40;;;17.60;79.60;;;;;;1974725;30;20039;-94
2021/08/05 02:08:25;;;;;;;3.38;2.40;;;17.60;79.70;;;;;;1967392;30;20048;-94
2021/08/05 02:09:48;;;;;;;4.82;2.75;;;17.60;79.80;;;;;;1967597;30;20420;-95
2021/08/05 02:10:50;;;;;;;3.78;2.70;;;17.60;79.80;;;;;;1970193;30;20077;-94
2021/08/05 02:11:53;;;;;;;3.53;2.55;;;17.70;79.80;;;;;;1971124;30;20130;-94
2021/08/05 02:13:01;;;;;;;3.92;2.80;;;17.70;79.90;;;;;;1978455;30;20048;-94
2021/08/05 02:14:05;;;;;;;4.07;3.00;;;17.70;80.00;;;;;;1984235;30;20561;-94
2021/08/05 02:15:09;;;;;;;6.30;3.10;;;17.70;80.00;;;;;;1975159;30;20044;-94
2021/08/05 02:16:15;;;;;;;4.43;2.95;;;17.70;80.00;;;;;;1967934;30;20040;-94
2021/08/05 02:17:17;;;;;;;4.75;2.85;;;17.60;80.10;;;;;;1981808;29;20054;-94
2021/08/05 02:18:19;;;;;;;3.78;2.78;;;17.60;80.10;;;;;;1982298;30;20058;-94
2021/08/05 02:19:21;;;;;;;4.07;2.90;;;17.70;80.20;;;;;;1968270;30;20555;-93
2021/08/05 02:20:23;;;;;;;4.38;3.20;;;17.70;80.20;;;;;;1967513;30;20153;-95
2021/08/05 02:21:25;;;;;;;4.22;3.28;;;17.70;80.30;;;;;;1969288;30;20555;-94
2021/08/05 02:22:26;;;;;;;3.80;2.95;;;17.70;80.30;;;;;;1974159;30;20079;-94
2021/08/05 02:23:29;;;;;;;3.90;2.95;;;17.70;80.30;;;;;;1983133;29;20058;-93
2021/08/05 02:24:32;;;;;;;4.00;3.10;;;17.60;80.30;;;;;;1974462;30;20131;-94
2021/08/05 02:25:33;;;;;;;4.47;3.03;;;17.70;80.40;;;;;;1967866;30;20040;-94
2021/08/05 02:26:34;;;;;;;4.15;3.22;;;17.60;80.40;;;;;;1970173;30;20048;-94
2021/08/05 02:27:37;;;;;;;4.47;3.15;;;17.70;80.50;;;;;;1974292;30;20093;-93
2021/08/05 02:28:37;;;;;;;5.05;3.13;;;17.70;80.50;;;;;;1978692;30;20035;-93
2021/08/05 02:29:39;;;;;;;4.18;3.17;;;17.70;80.50;;;;;;1975152;30;20047;-93
2021/08/05 02:30:40;;;;;;;3.92;3.00;;;17.70;80.60;;;;;;1982458;29;20067;-94
2021/08/05 02:31:43;;;;;;;3.92;2.95;;;17.60;80.50;;;;;;1989263;29;20043;-94
2021/08/05 02:32:44;;;;;;;5.13;3.80;;;17.70;80.60;;;;;;1990928;29;20039;-94
2021/08/05 02:33:46;;;;;;;4.20;3.25;;;17.70;80.60;;;;;;2005587;29;20555;-94
2021/08/05 02:34:47;;;;;;;5.10;3.30;;;17.60;80.50;;;;;;2005840;29;20059;-94
2021/08/05 02:35:48;;;;;;;4.53;3.25;;;17.60;80.50;;;;;;1993812;29;20043;-94
2021/08/05 02:36:49;;;;;;;4.32;3.22;;;17.70;80.70;;;;;;2016027;29;20029;-94
2021/08/05 02:37:50;;;;;;;4.00;3.15;;;17.60;80.70;;;;;;2037787;29;20055;-94
2021/08/05 02:38:51;;;;;;;5.30;3.40;;;17.60;80.80;;;;;;2029103;29;20072;-95
2021/08/05 02:39:52;;;;;;;4.78;2.95;;;17.60;80.80;;;;;;2028937;29;20045;-94
2021/08/05 02:40:54;;;;;;;4.22;3.13;;;17.60;80.80;;;;;;2040278;29;20502;-93
2021/08/05 02:41:56;;;;;;;4.75;3.05;;;17.60;80.80;;;;;;2068978;28;20045;-94
2021/08/05 02:42:58;;;;;;;4.80;3.20;;;17.60;80.90;;;;;;2060556;28;20520;-94
2021/08/05 02:44:01;;;;;;;4.15;3.20;;;17.60;80.90;;;;;;2050838;28;20059;-94
2021/08/05 02:45:03;;;;;;;4.50;3.35;;;17.60;80.90;;;;;;2060386;28;20045;-94
2021/08/05 02:46:05;;;;;;;4.28;3.40;;;17.60;81.00;;;;;;2067215;28;20085;-94
2021/08/05 02:47:08;;;;;;;4.18;2.90;;;17.60;81.10;;;;;;2068167;28;20038;-94
2021/08/05 02:48:10;;;;;;;3.95;2.92;;;17.60;81.10;;;;;;2067469;28;20038;-94
2021/08/05 02:49:14;;;;;;;3.67;2.90;;;17.60;81.20;;;;;;2067964;28;20031;-94
2021/08/05 02:50:16;;;;;;;4.47;3.20;;;17.50;81.10;;;;;;2067715;28;20030;-94
2021/08/05 02:51:18;;;;;;;4.72;3.10;;;17.50;81.10;;;;;;2066745;28;20089;-94
2021/08/05 02:52:21;;;;;;;3.92;2.97;;;17.60;81.20;;;;;;2059487;28;20061;-94
2021/08/05 02:53:22;;;;;;;4.03;3.13;;;17.50;81.10;;;;;;2053080;28;20130;-94
2021/08/05 02:54:23;;;;;;;5.40;3.35;;;17.60;81.20;;;;;;2060275;28;20122;-94
2021/08/05 02:55:25;;;;;;;4.15;3.00;;;17.50;81.10;;;;;;2067240;28;20439;-94
2021/08/05 02:56:26;;;;;;;3.65;2.72;;;17.60;81.20;;;;;;2066534;28;20146;-94
2021/08/05 02:57:27;;;;;;;4.80;3.33;;;17.50;81.20;;;;;;2059905;28;20030;-94
2021/08/05 02:58:29;;;;;;;4.50;3.05;;;17.60;81.30;;;;;;2067308;28;20042;-94
2021/08/05 02:59:31;;;;;;;4.13;3.20;;;17.50;81.20;;;;;;2068277;28;20527;-94
2021/08/05 03:00:32;;;;;;;4.25;3.00;;;17.60;81.20;;;;;;2067908;28;20421;-94
2021/08/05 03:01:33;;;;;;;3.83;2.78;;;17.60;81.20;;;;;;2066705;28;20061;-95
2021/08/05 03:02:35;;;;;;;4.93;2.92;;;17.50;81.70;;;;;;2054662;28;20047;-94
2021/08/05 03:03:36;;;;;;;3.60;2.75;;;17.60;81.20;;;;;;2051603;28;20034;-94
2021/08/05 03:04:37;;;;;;;3.83;3.05;;;17.60;81.10;;;;;;2043782;29;20576;-94
2021/08/05 03:05:39;;;;;;;3.70;3.00;;;17.60;81.10;;;;;;2054533;28;20133;-94
2021/08/05 03:06:42;;;;;;;3.90;3.10;;;17.60;81.10;;;;;;2058351;28;20039;-94
2021/08/05 03:07:43;;;;;;;4.25;3.20;;;17.60;81.10;;;;;;2059801;28;20382;-94
2021/08/05 03:08:43;;;;;;;3.70;2.88;;;17.60;81.10;;;;;;2059368;28;20086;-94
2021/08/05 03:09:44;;;;;;;4.32;3.20;;;17.60;81.10;;;;;;2067656;28;20037;-94
2021/08/05 03:10:45;;;;;;;3.78;2.80;;;17.60;81.10;;;;;;2059099;28;20062;-94
2021/08/05 03:11:45;;;;;;;4.35;3.08;;;17.60;81.10;;;;;;2065162;28;20034;-94
2021/08/05 03:12:46;;;;;;;3.70;2.90;;;17.60;81.00;;;;;;2069288;28;20513;-94
2021/08/05 03:13:47;;;;;;;4.47;2.92;;;17.60;81.00;;;;;;2053379;28;20065;-94
2021/08/05 03:14:48;;;;;;;4.20;2.80;;;17.60;81.00;;;;;;2045199;29;20509;-94
2021/08/05 03:15:48;;;;;;;3.90;2.85;;;17.60;80.90;;;;;;2045472;29;20036;-94
2021/08/05 03:16:49;;;;;;;4.00;2.88;;;17.60;80.90;;;;;;2053308;28;20086;-94
2021/08/05 03:17:50;;;;;;;4.00;2.90;;;17.70;80.90;;;;;;2059083;28;20584;-95
2021/08/05 03:18:50;;;;;;;4.18;3.00;;;17.60;80.90;;;;;;2062768;28;20038;-94
2021/08/05 03:19:51;;;;;;;4.38;2.88;;;17.70;80.90;;;;;;2072399;28;20031;-94
2021/08/05 03:20:52;;;;;;;4.47;2.83;;;17.70;80.80;;;;;;2062567;28;20042;-94
2021/08/05 03:21:52;;;;;;;4.05;2.70;;;17.70;80.80;;;;;;2069310;28;20026;-94
2021/08/05 03:22:54;;;;;;;4.10;2.72;;;17.70;80.80;;;;;;2067159;28;20574;-95
2021/08/05 03:23:54;;;;;;;3.65;2.55;;;17.70;80.80;;;;;;2061174;28;20031;-94
2021/08/05 03:24:55;;;;;;;3.78;2.80;;;17.70;80.80;;;;;;2068834;28;20042;-95
2021/08/05 03:25:56;;;;;;;3.53;2.78;;;17.70;80.70;;;;;;2069391;28;20468;-94
2021/08/05 03:26:57;;;;;;;3.55;2.70;;;17.60;80.70;;;;;;2067674;28;20057;-94
2021/08/05 03:27:58;;;;;;;4.05;3.03;;;17.60;80.70;;;;;;2057102;29;20032;-94
2021/08/05 03:28:59;;;;;;;4.15;2.95;;;17.60;80.70;;;;;;2063229;28;20077;-93
2021/08/05 03:30:00;;;;;;;3.65;2.63;;;17.60;80.70;;;;;;2061339;28;20039;-94
2021/08/05 03:31:00;;;;;;;3.53;2.60;;;17.60;80.70;;;;;;2065013;28;20039;-95
2021/08/05 03:32:01;;;;;;;3.75;2.67;;;17.60;80.70;;;;;;2048460;29;20469;-94
2021/08/05 03:33:02;;;;;;;3.28;2.63;;;17.60;80.70;;;;;;2047353;28;20036;-93
2021/08/05 03:34:03;;;;;;;3.90;2.60;;;17.60;80.70;;;;;;2059444;28;20057;-94
2021/08/05 03:35:04;;;;;;;4.50;2.65;;;17.60;80.70;;;;;;2059511;28;20404;-95
2021/08/05 03:36:05;;;;;;;3.90;2.78;;;17.60;80.80;;;;;;2060191;28;20034;-94
2021/08/05 03:37:06;;;;;;;4.05;2.58;;;17.60;80.80;;;;;;2050891;29;20044;-93
2021/08/05 03:38:06;;;;;;;4.47;2.50;;;17.60;80.80;;;;;;2066361;28;20042;-94
2021/08/05 03:39:07;;;;;;;3.92;2.50;;;17.50;80.70;;;;;;2067308;28;20050;-94
2021/08/05 03:40:08;;;;;;;3.72;2.60;;;17.60;80.80;;;;;;2060049;28;20135;-94
2021/08/05 03:41:09;;;;;;;3.40;2.50;;;17.50;80.70;;;;;;2063082;28;20130;-94
2021/08/05 03:42:09;;;;;;;3.28;2.42;;;17.50;80.80;;;;;;2053557;28;20063;-94
2021/08/05 03:43:10;;;;;;;3.05;2.47;;;17.50;80.80;;;;;;2060441;28;20066;-94
2021/08/05 03:44:11;;;;;;;3.78;2.78;;;17.50;80.80;;;;;;2053475;28;20031;-94
2021/08/05 03:45:11;;;;;;;3.88;2.65;;;17.50;80.80;;;;;;2053580;28;20066;-94
2021/08/05 03:46:12;;;;;;;3.50;2.55;;;17.50;80.80;;;;;;2061194;28;20106;-94
2021/08/05 03:47:13;;;;;;;3.83;2.78;;;17.50;80.80;;;;;;2061489;28;20038;-94
2021/08/05 03:48:14;;;;;;;3.55;2.75;;;17.50;80.80;;;;;;2056284;29;20039;-94
2021/08/05 03:49:15;;;;;;;3.72;2.63;;;17.50;80.80;;;;;;2053747;28;20031;-95
2021/08/05 03:50:16;;;;;;;3.47;2.63;;;17.60;80.90;;;;;;2051614;28;20086;-94
2021/08/05 03:51:17;;;;;;;4.55;2.80;;;17.50;80.80;;;;;;2059959;28;20121;-94
2021/08/05 03:52:18;;;;;;;3.67;2.53;;;17.50;80.80;;;;;;2051520;29;20047;-93
2021/08/05 03:53:18;;;;;;;3.15;2.50;;;17.50;80.80;;;;;;2060397;28;20038;-94
2021/08/05 03:54:19;;;;;;;3.20;2.35;;;17.60;80.80;;;;;;2059469;28;20046;-94
2021/08/05 03:55:19;;;;;;;3.92;2.40;;;17.50;80.70;;;;;;2067140;28;20114;-94
2021/08/05 03:56:20;;;;;;;3.60;2.35;;;17.50;80.70;;;;;;2058890;28;20086;-95
2021/08/05 03:57:21;;;;;;;3.33;2.15;;;17.50;80.80;;;;;;2058971;28;20038;-94
2021/08/05 03:58:22;;;;;;;3.08;2.33;;;17.50;80.80;;;;;;2051463;28;20362;-94
2021/08/05 03:59:22;;;;;;;3.22;2.22;;;17.60;80.90;;;;;;2060562;28;20031;-93
2021/08/05 04:00:23;;;;;;;4.32;2.20;;;17.50;80.90;;;;;;2054612;28;20090;-94
2021/08/05 04:01:24;;;;;;;3.58;2.40;;;17.50;81.50;;;;;;2051459;28;20038;-94
2021/08/05 04:02:24;;;;;;;3.25;2.50;;;17.50;80.90;;;;;;2067193;28;20122;-94
2021/08/05 04:03:25;;;;;;;2.70;2.10;;;17.50;80.90;;;;;;2068181;28;20043;-94
2021/08/05 04:04:26;;;;;;;3.38;2.33;;;17.50;81.00;;;;;;2074895;28;20021;-94
2021/08/05 04:05:27;;;;;;;3.95;2.33;;;17.50;81.00;;;;;;2052087;28;20023;-92
2021/08/05 04:06:28;;;;;;;3.47;2.25;;;17.50;81.10;;;;;;2067869;28;20023;-92
2021/08/05 04:07:28;;;;;;;3.20;2.17;;;17.50;81.10;;;;;;2075943;28;20019;-93
2021/08/05 04:08:29;;;;;;;3.50;2.45;;;17.50;81.10;;;;;;2075860;28;20085;-92
2021/08/05 04:09:30;;;;;;;3.45;2.50;;;17.50;81.10;;;;;;2075920;28;20063;-92
2021/08/05 04:10:31;;;;;;;3.38;2.40;;;17.50;81.10;;;;;;2070491;28;20053;-91
2021/08/05 04:11:31;;;;;;;3.67;2.58;;;17.50;81.10;;;;;;2059923;28;20029;-93
2021/08/05 04:12:32;;;;;;;3.70;2.53;;;17.50;81.10;;;;;;2059848;28;20051;-92
2021/08/05 04:13:33;;;;;;;3.20;2.50;;;17.50;81.00;;;;;;2051878;28;20068;-93
2021/08/05 04:14:34;;;;;;;3.45;2.65;;;17.50;81.00;;;;;;2062905;28;20058;-93
2021/08/05 04:15:35;;;;;;;3.05;2.38;;;17.50;81.00;;;;;;2059714;28;20219;-91
2021/08/05 04:16:35;;;;;;;4.45;2.65;;;17.50;81.00;;;;;;2047248;28;20116;-93
2021/08/05 04:17:37;;;;;;;2.95;2.40;;;17.50;81.00;;;;;;2059634;28;20066;-89
2021/08/05 04:18:37;;;;;;;3.25;2.53;;;17.50;81.00;;;;;;2067630;28;20031;-93
2021/08/05 04:19:38;;;;;;;4.28;2.55;;;17.50;81.10;;;;;;2062408;28;20058;-94
2021/08/05 04:20:38;;;;;;;3.85;2.53;;;17.40;81.10;;;;;;2053260;29;20054;-94
2021/08/05 04:21:39;;;;;;;3.22;2.38;;;17.50;81.20;;;;;;2044980;29;20035;-94
2021/08/05 04:22:40;;;;;;;3.38;2.40;;;17.40;81.10;;;;;;2052770;28;20047;-94
2021/08/05 04:23:41;;;;;;;3.90;2.63;;;17.40;81.20;;;;;;2044344;29;20569;-94
2021/08/05 04:24:41;;;;;;;3.30;2.30;;;17.50;81.30;;;;;;2051878;28;20134;-94
2021/08/05 04:25:42;;;;;;;3.03;2.30;;;17.40;81.20;;;;;;2044085;29;20454;-94
2021/08/05 04:26:43;;;;;;;3.42;2.67;;;17.50;81.30;;;;;;2048814;28;20031;-94
2021/08/05 04:27:43;;;;;;;3.40;2.47;;;17.40;81.20;;;;;;2044562;28;20215;-94
2021/08/05 04:28:44;;;;;;;3.78;2.67;;;17.40;81.30;;;;;;2048801;28;20094;-95
2021/08/05 04:29:45;;;;;;;3.25;2.40;;;17.40;81.30;;;;;;2048852;29;20074;-94
2021/08/05 04:30:45;;;;;;;4.00;2.28;;;17.40;81.30;;;;;;2059262;28;20074;-94
2021/08/05 04:31:46;;;;;;;3.53;2.35;;;17.40;81.30;;;;;;2059091;28;20035;-94
2021/08/05 04:32:48;;;;;;;3.30;2.42;;;17.40;81.40;;;;;;2062843;28;20045;-94
2021/08/05 04:33:49;;;;;;;3.65;2.80;;;17.40;81.40;;;;;;2063177;28;20030;-95
2021/08/05 04:34:50;;;;;;;4.28;2.70;;;17.40;81.40;;;;;;2055359;28;20097;-94
2021/08/05 04:35:50;;;;;;;3.90;2.90;;;17.40;81.40;;;;;;2059054;28;20113;-94
2021/08/05 04:36:51;;;;;;;3.08;2.47;;;17.40;81.50;;;;;;2042732;29;20043;-94
2021/08/05 04:37:53;;;;;;;3.22;2.35;;;17.40;81.50;;;;;;2050762;28;20036;-94
2021/08/05 04:38:54;;;;;;;3.78;2.55;;;17.30;81.40;;;;;;2066632;28;20582;-94
2021/08/05 04:39:55;;;;;;;3.25;2.40;;;17.40;81.50;;;;;;2058271;28;20125;-94
2021/08/05 04:40:55;;;;;;;3.28;2.53;;;17.40;81.50;;;;;;2058126;28;20039;-94
2021/08/05 04:41:56;;;;;;;3.92;2.72;;;17.30;81.50;;;;;;2074332;28;20038;-94
2021/08/05 04:42:57;;;;;;;3.25;2.63;;;17.40;81.50;;;;;;2074332;28;20113;-95
2021/08/05 04:43:58;;;;;;;3.08;2.33;;;17.40;81.60;;;;;;2057798;28;20043;-94
2021/08/05 04:44:59;;;;;;;3.65;2.53;;;17.40;81.60;;;;;;2050155;28;20039;-94
2021/08/05 04:46:00;;;;;;;2.90;2.15;;;17.40;81.60;;;;;;2066406;28;20038;-93
2021/08/05 04:47:00;;;;;;;3.78;2.50;;;17.40;81.60;;;;;;2065516;28;20517;-94
2021/08/05 04:48:04;;;;;;;3.03;2.15;;;17.40;81.60;;;;;;2050230;28;20040;-94
2021/08/05 04:49:05;;;;;;;3.30;2.28;;;17.40;81.60;;;;;;2066357;28;20042;-94
2021/08/05 04:50:06;;;;;;;3.38;2.60;;;17.50;81.60;;;;;;2058265;28;20043;-94
2021/08/05 04:51:08;;;;;;;3.40;2.33;;;17.50;81.60;;;;;;2050320;28;20031;-94
2021/08/05 04:52:09;;;;;;;4.20;2.50;;;17.40;81.50;;;;;;2058031;28;20406;-93
2021/08/05 04:53:12;;;;;;;4.32;2.53;;;17.50;81.60;;;;;;2066406;28;20042;-94
2021/08/05 04:54:12;;;;;;;3.42;2.40;;;17.40;81.50;;;;;;2057927;28;20038;-93
2021/08/05 04:55:13;;;;;;;3.70;2.50;;;17.50;81.60;;;;;;2058140;28;20070;-94
2021/08/05 04:56:14;;;;;;;3.20;2.30;;;17.50;81.50;;;;;;2051846;28;20091;-94
2021/08/05 04:57:15;;;;;;;2.97;2.45;;;17.50;81.50;;;;;;2058027;28;20126;-95
2021/08/05 04:58:15;;;;;;;3.20;2.28;;;17.50;81.50;;;;;;2050681;28;20044;-94
2021/08/05 04:59:16;;;;;;;3.58;2.30;;;17.50;81.50;;;;;;2050131;29;20094;-94
2021/08/05 05:00:34;;;;;;;3.70;2.40;;;17.50;81.50;;;;;;2058653;28;20027;-94
2021/08/05 05:01:34;;;;;;;2.83;2.20;;;17.50;81.50;;;;;;2061119;28;20433;-94
2021/08/05 05:02:35;;;;;;;3.75;2.42;;;17.50;81.50;;;;;;2045445;28;20035;-94
2021/08/05 05:03:36;;;;;;;3.33;2.25;;;17.50;81.50;;;;;;2050638;29;20039;-94
2021/08/05 05:04:38;;;;;;;3.35;2.45;;;17.50;81.50;;;;;;2039222;29;20032;-94
2021/08/05 05:05:39;;;;;;;3.72;2.40;;;17.60;81.60;;;;;;2051196;28;20039;-94
2021/08/05 05:06:39;;;;;;;4.53;2.58;;;17.50;82.10;;;;;;2066333;28;20061;-94
2021/08/05 05:07:40;;;;;;;3.85;2.40;;;17.50;81.50;;;;;;2058020;28;20098;-94
2021/08/05 05:08:41;;;;;;;3.67;2.55;;;17.60;82.20;;;;;;2058111;28;20090;-94
2021/08/05 05:09:41;;;;;;;3.78;2.40;;;17.60;81.50;;;;;;2057873;28;20035;-94
2021/08/05 05:10:42;;;;;;;3.58;2.47;;;17.60;81.50;;;;;;2050274;28;20036;-95
2021/08/05 05:12:23;;;;;;;4.65;2.70;;;17.60;81.50;;;;;;2058483;28;20089;-94
2021/08/05 05:14:25;;;;;;;3.53;2.63;;;17.60;81.40;;;;;;2043496;29;20087;-93
2021/08/05 05:16:39;;;;;;;2.85;2.20;;;17.60;81.30;;;;;;2026055;29;20171;-94
2021/08/05 05:18:57;;;;;;;2.88;1.90;;;17.60;81.10;;;;;;2033397;29;20534;-94
2021/08/05 05:20:57;;;;;;;2.88;2.25;;;17.60;81.10;;;;;;2003052;29;20042;-94
2021/08/05 05:23:26;;;;;;;4.22;2.38;;;17.60;81.00;;;;;;2000441;29;20030;-94
2021/08/05 05:25:33;;;;;;;3.40;2.10;;;17.60;80.90;;;;;;1972685;30;20048;-93
2021/08/05 06:50:53;;;;;;;3.90;2.67;;;18.20;80.20;;;;;;2073930;28;20245;-94
2021/08/05 06:51:54;;;;;;;4.05;3.00;;;18.20;80.10;;;;;;2067534;28;20103;-94
2021/08/05 06:52:54;;;;;;;4.35;3.30;;;18.20;80.20;;;;;;2051049;28;20035;-94
2021/08/05 06:53:58;;;;;;;5.40;3.90;;;18.30;80.20;;;;;;2058519;28;20046;-94
2021/08/05 06:54:59;;;;;;;4.72;3.70;;;18.30;80.30;;;;;;2051142;28;20035;-95
2021/08/05 06:56:00;;;;;;;5.43;3.95;;;18.30;80.20;;;;;;2050981;29;20039;-95
2021/08/05 06:57:00;;;;;;;5.28;3.90;;;18.30;80.20;;;;;;2059048;28;20038;-94
2021/08/05 06:58:01;;;;;;;5.05;3.78;;;18.30;80.20;;;;;;2051702;29;20046;-94
2021/08/05 06:59:02;;;;;;;5.85;4.13;;;18.40;80.20;;;;;;2051385;28;20031;-95
2021/08/05 07:00:04;;;;;;;4.80;3.80;;;18.40;80.30;;;;;;2059615;28;20504;-94
2021/08/05 07:01:05;;;;;;;5.50;3.95;;;18.40;80.30;;;;;;2058863;28;20554;-94
2021/08/05 07:02:05;;;;;;;5.00;3.95;;;18.40;80.30;;;;;;2058812;28;20046;-94
2021/08/05 07:03:06;;;;;;;4.93;4.00;;;18.40;80.30;;;;;;2058569;28;20186;-94
2021/08/05 07:04:11;;;;;;;4.93;4.07;;;18.40;80.40;;;;;;2051240;28;20165;-95
2021/08/05 07:05:29;;;;;;;5.10;4.07;;;18.40;80.40;;;;;;2061615;28;20053;-95